createdAt,value
2023-04-03T00:03:29.138Z,3.78
2023-04-03T00:08:33.533Z,3.81
2023-04-03T00:13:36.585Z,3.85
2023-04-03T00:18:41.516Z,3.88
2023-04-03T00:23:44.235Z,3.93
2023-04-03T00:28:47.002Z,3.93
2023-04-03T00:33:51.069Z,3.97
2023-04-03T00:38:53.864Z,3.96
2023-04-03T00:43:57.120Z,3.98
2023-04-03T00:49:01.563Z,4.01
2023-04-03T00:54:08.970Z,4.06
2023-04-03T00:59:17.050Z,4.05
2023-04-03T01:04:30.939Z,4.06
2023-04-03T01:09:34.897Z,4.07
2023-04-03T01:14:37.773Z,4.07
2023-04-03T01:19:49.769Z,4.07
2023-04-03T01:24:54.214Z,4.06
2023-04-03T01:29:57.192Z,4.06
2023-04-03T01:35:01.500Z,4.07
2023-04-03T01:40:04.793Z,4.06
2023-04-03T01:45:08.553Z,4.08
2023-04-03T01:50:12.775Z,4.07
2023-04-03T01:55:16.048Z,4.07
2023-04-03T02:00:19.717Z,4.06
2023-04-03T02:05:23.770Z,4.06
2023-04-03T02:10:26.859Z,3.99
2023-04-03T02:15:29.793Z,3.95
2023-04-03T02:20:34.466Z,3.88
2023-04-03T02:25:38.573Z,3.80
2023-04-03T02:30:41.799Z,3.78
2023-04-03T02:35:54.030Z,3.72
2023-04-03T02:41:02.086Z,3.65
2023-04-03T02:46:05.942Z,3.59
2023-04-03T02:51:10.118Z,3.54
2023-04-03T02:56:13.022Z,3.50
2023-04-03T03:01:16.439Z,3.42
2023-04-03T03:06:20.822Z,3.33
2023-04-03T03:11:23.566Z,3.22
2023-04-03T03:16:26.454Z,3.14
2023-04-03T03:21:30.703Z,3.08
2023-04-03T03:26:33.577Z,3.01
2023-04-03T03:31:38.508Z,2.91
2023-04-03T03:36:42.796Z,2.88
2023-04-03T03:41:46.144Z,2.82
2023-04-03T03:46:49.059Z,2.73
2023-04-03T03:51:54.495Z,2.67
2023-04-03T03:56:57.610Z,2.61
2023-04-03T04:02:02.071Z,2.53
2023-04-03T04:07:06.623Z,2.42
2023-04-03T04:12:10.713Z,2.34
2023-04-03T04:17:14.629Z,2.28
2023-04-03T04:22:18.832Z,2.22
2023-04-03T04:27:21.801Z,2.11
2023-04-03T04:32:25.374Z,2.03
2023-04-03T04:37:30.286Z,2.01
2023-04-03T04:42:33.791Z,1.94
2023-04-03T04:47:37.355Z,1.88
2023-04-03T04:52:42.618Z,1.81
2023-04-03T04:57:46.071Z,1.72
2023-04-03T05:02:49.868Z,1.70
2023-04-03T05:07:56.502Z,1.68
2023-04-03T05:13:00.162Z,1.65
2023-04-03T05:18:03.630Z,1.60
2023-04-03T05:23:08.477Z,1.67
2023-04-03T05:28:12.448Z,1.65
2023-04-03T05:33:15.364Z,1.71
2023-04-03T05:38:26.607Z,1.75
2023-04-03T05:43:31.144Z,1.83
2023-04-03T05:48:34.218Z,1.90
2023-04-03T05:53:39.268Z,2.10
2023-04-03T05:58:42.681Z,2.25
2023-04-03T06:03:46.058Z,2.40
2023-04-03T06:08:51.141Z,2.66
2023-04-03T06:13:54.709Z,2.67
2023-04-03T06:18:58.075Z,2.69
2023-04-03T06:24:03.056Z,2.96
2023-04-03T06:29:06.190Z,3.42
2023-04-03T06:34:09.713Z,3.49
2023-04-03T06:39:16.449Z,3.66
2023-04-03T06:44:20.363Z,3.66
2023-04-03T06:49:24.136Z,3.85
2023-04-03T06:54:28.325Z,3.62
2023-04-03T06:59:33.236Z,4.01
2023-04-03T07:04:37.322Z,4.25
2023-04-03T07:09:42.237Z,4.13
2023-04-03T07:14:45.955Z,4.18
2023-04-03T07:19:51.419Z,4.25
2023-04-03T07:24:57.105Z,4.64
2023-04-03T07:30:01.612Z,4.56
2023-04-03T07:35:04.676Z,4.50
2023-04-03T07:40:11.016Z,4.63
2023-04-03T07:45:14.171Z,5.31
2023-04-03T07:50:19.668Z,5.21
2023-04-03T07:55:23.924Z,5.28
2023-04-03T08:00:26.948Z,5.11
2023-04-03T08:05:29.832Z,5.86
2023-04-03T08:10:34.104Z,5.51
2023-04-03T08:15:37.862Z,5.69
2023-04-03T08:20:41.892Z,5.02
2023-04-03T08:25:46.555Z,5.60
2023-04-03T08:30:51.934Z,5.29
2023-04-03T08:35:54.802Z,4.72
2023-04-03T08:41:16.344Z,4.72
2023-04-03T08:46:24.594Z,5.25
2023-04-03T08:51:29.032Z,5.41
2023-04-03T08:56:35.741Z,5.48
2023-04-03T09:01:42.030Z,5.44
2023-04-03T09:06:49.786Z,5.11
2023-04-03T09:12:02.556Z,5.70
2023-04-03T09:17:13.211Z,5.35
2023-04-03T09:22:19.574Z,5.38
2023-04-03T09:27:23.904Z,6.34
2023-04-03T09:32:31.588Z,6.16
2023-04-03T09:37:41.104Z,6.59
2023-04-03T09:42:48.915Z,6.74
2023-04-03T09:48:10.379Z,7.46
2023-04-03T09:53:30.108Z,7.75
2023-04-03T09:58:49.561Z,7.53
2023-04-03T10:04:06.935Z,7.51
2023-04-03T10:09:20.283Z,7.47
2023-04-03T10:14:24.544Z,7.95
2023-04-03T10:19:37.651Z,8.62
2023-04-03T10:24:50.603Z,7.85
2023-04-03T10:30:02.078Z,7.00
2023-04-03T10:35:15.994Z,7.50
2023-04-03T10:40:32.136Z,7.28
2023-04-03T10:45:51.660Z,7.93
2023-04-03T10:51:04.372Z,7.92
2023-04-03T10:56:15.628Z,8.00
2023-04-03T11:01:25.387Z,8.03
2023-04-03T11:06:35.793Z,8.07
2023-04-03T11:11:41.925Z,8.20
2023-04-03T11:16:54.420Z,8.48
2023-04-03T11:22:03.261Z,8.66
2023-04-03T11:27:11.146Z,9.11
2023-04-03T11:32:32.351Z,9.19
2023-04-03T11:37:38.814Z,9.24
2023-04-03T11:42:43.685Z,9.13
2023-04-03T11:47:50.403Z,9.73
2023-04-03T11:53:29.209Z,10.55
2023-04-03T11:58:34.705Z,10.44
2023-04-03T12:04:17.139Z,11.15
2023-04-03T12:10:04.712Z,10.80
2023-04-03T12:15:50.895Z,11.79
2023-04-03T12:20:59.712Z,11.11
2023-04-03T12:26:22.513Z,11.13
2023-04-03T12:31:35.020Z,11.31
2023-04-03T12:36:48.896Z,12.83
2023-04-03T12:41:59.676Z,13.77
2023-04-03T12:47:08.443Z,12.98
2023-04-03T12:52:30.674Z,14.79
2023-04-03T12:57:34.788Z,14.43
2023-04-03T13:02:41.873Z,14.89
2023-04-03T13:07:51.961Z,13.58
2023-04-03T13:12:57.938Z,16.06
2023-04-03T13:18:03.669Z,15.57
2023-04-03T13:23:10.268Z,12.79
2023-04-03T13:28:14.748Z,14.10
2023-04-03T13:33:23.776Z,16.11
2023-04-03T13:38:32.771Z,13.34
2023-04-03T13:43:41.375Z,12.24
2023-04-03T13:48:47.268Z,11.77
2023-04-03T13:53:55.165Z,11.54
2023-04-03T13:59:09.991Z,10.30
2023-04-03T14:04:17.370Z,10.55
2023-04-03T14:09:23.759Z,9.93
2023-04-03T14:14:32.564Z,10.02
2023-04-03T14:19:37.829Z,10.14
2023-04-03T14:24:42.006Z,9.83
2023-04-03T14:29:44.746Z,9.57
2023-04-03T14:34:48.374Z,9.47
2023-04-03T14:39:54.949Z,8.85
2023-04-03T14:44:57.686Z,9.10
2023-04-03T14:50:01.944Z,9.19
2023-04-03T14:55:10.503Z,9.26
2023-04-03T15:00:17.804Z,9.36
2023-04-03T15:05:20.747Z,8.65
2023-04-03T15:10:31.868Z,9.15
2023-04-03T15:15:36.591Z,8.85
2023-04-03T15:20:39.731Z,8.67
2023-04-03T15:25:44.809Z,8.57
2023-04-03T15:30:48.163Z,8.83
2023-04-03T15:35:51.277Z,9.05
2023-04-03T15:40:55.994Z,8.46
2023-04-03T15:46:00.583Z,8.77
2023-04-03T15:51:03.355Z,8.36
2023-04-03T15:56:09.491Z,8.53
2023-04-03T16:01:13.854Z,8.65
2023-04-03T16:06:18.432Z,8.27
2023-04-03T16:11:22.903Z,8.35
2023-04-03T16:16:26.942Z,7.91
2023-04-03T16:21:30.123Z,8.23
2023-04-03T16:26:34.533Z,8.16
2023-04-03T16:31:37.405Z,8.47
2023-04-03T16:36:40.398Z,8.35
2023-04-03T16:41:44.535Z,8.67
2023-04-03T16:46:48.373Z,8.84
2023-04-03T16:51:51.489Z,13.13
2023-04-03T16:56:55.940Z,16.43
2023-04-03T17:01:58.945Z,16.90
2023-04-03T17:07:06.959Z,15.26
2023-04-03T17:12:11.055Z,14.40
2023-04-03T17:17:16.903Z,12.55
2023-04-03T17:22:20.868Z,10.28
2023-04-03T17:27:26.054Z,8.58
2023-04-03T17:32:28.884Z,8.16
2023-04-03T17:37:31.678Z,7.41
2023-04-03T17:42:35.785Z,7.29
2023-04-03T17:47:40.007Z,6.76
2023-04-03T17:52:44.405Z,6.48
2023-04-03T17:57:50.922Z,6.17
2023-04-03T18:02:55.236Z,5.96
2023-04-03T18:07:59.097Z,5.75
2023-04-03T18:13:03.350Z,5.49
2023-04-03T18:18:06.288Z,5.34
2023-04-03T18:23:11.394Z,5.18
2023-04-03T18:28:17.017Z,4.93
2023-04-03T18:33:19.752Z,4.84
2023-04-03T18:38:22.560Z,4.71
2023-04-03T18:43:28.096Z,4.55
2023-04-03T18:48:31.319Z,4.47
2023-04-03T18:53:34.445Z,4.36
2023-04-03T18:58:39.015Z,4.28
2023-04-03T19:03:43.032Z,4.16
2023-04-03T19:08:47.627Z,4.11
2023-04-03T19:14:04.517Z,4.04
2023-04-03T19:19:14.789Z,3.97
2023-04-03T19:24:20.193Z,3.92
2023-04-03T19:29:24.341Z,3.81
2023-04-03T19:34:28.066Z,3.76
2023-04-03T19:39:35.036Z,3.62
2023-04-03T19:44:42.367Z,3.56
2023-04-03T19:49:45.182Z,3.43
2023-04-03T19:54:47.872Z,3.43
2023-04-03T19:59:51.990Z,3.30
2023-04-03T20:04:55.283Z,3.25
2023-04-03T20:09:58.626Z,3.22
2023-04-03T20:15:04.038Z,3.17
2023-04-03T20:20:08.011Z,3.10
2023-04-03T20:25:17.504Z,3.03
2023-04-03T20:30:29.066Z,2.99
2023-04-03T20:35:32.667Z,2.91
2023-04-03T20:40:36.016Z,2.87
2023-04-03T20:45:40.477Z,2.76
2023-04-03T20:50:43.397Z,2.64
2023-04-03T20:55:57.063Z,2.60
2023-04-03T21:01:01.940Z,2.56
2023-04-03T21:06:42.608Z,2.53
2023-04-03T21:12:22.511Z,2.43
2023-04-03T21:17:24.972Z,2.38
2023-04-03T21:22:29.065Z,2.32
2023-04-03T21:27:32.616Z,2.28
2023-04-03T21:32:35.310Z,2.26
2023-04-03T21:37:39.478Z,2.11
2023-04-03T21:42:42.163Z,2.12
2023-04-03T21:47:44.932Z,2.06
2023-04-03T21:52:50.016Z,1.98
2023-04-03T21:57:54.347Z,1.94
2023-04-03T22:03:07.721Z,1.86
2023-04-03T22:08:14.732Z,1.82
2023-04-03T22:13:17.405Z,1.72
2023-04-03T22:18:21.168Z,1.67
2023-04-03T22:23:26.132Z,1.60
2023-04-03T22:28:29.405Z,1.52
2023-04-03T22:33:32.359Z,1.47
2023-04-03T22:38:36.959Z,1.41
2023-04-03T22:43:40.687Z,1.31
2023-04-03T22:48:45.261Z,1.24
2023-04-03T22:53:49.381Z,1.18
2023-04-03T22:58:52.366Z,1.17
2023-04-03T23:03:55.776Z,1.11
2023-04-03T23:09:00.128Z,0.93
2023-04-03T23:14:03.118Z,0.87
2023-04-03T23:19:07.281Z,0.82
2023-04-03T23:24:11.542Z,0.74
2023-04-03T23:29:14.261Z,0.57
2023-04-03T23:34:17.224Z,0.45
2023-04-03T23:39:23.033Z,0.37
2023-04-03T23:44:25.726Z,0.19
2023-04-03T23:49:28.716Z,0.20
2023-04-03T23:54:33.354Z,0.09
2023-04-03T23:59:36.119Z,-0.03
